createdAt,value
2017-07-27T00:01:54.438Z,95.04
2017-07-27T00:04:22.079Z,95.01
2017-07-27T00:06:49.678Z,95.00
2017-07-27T00:09:17.595Z,95.01
2017-07-27T00:11:45.230Z,95.04
2017-07-27T00:14:12.868Z,95.09
2017-07-27T00:16:40.526Z,95.08
2017-07-27T00:19:08.150Z,94.98
2017-07-27T00:21:35.820Z,94.86
2017-07-27T00:24:03.437Z,94.87
2017-07-27T00:26:31.334Z,94.84
2017-07-27T00:28:59.049Z,94.73
2017-07-27T00:31:26.760Z,94.68
2017-07-27T00:33:54.427Z,94.67
2017-07-27T00:36:22.025Z,94.56
2017-07-27T00:38:49.665Z,94.57
2017-07-27T00:41:17.278Z,94.54
2017-07-27T00:43:45.336Z,94.50
2017-07-27T00:46:12.948Z,94.43
2017-07-27T00:48:40.576Z,94.43
2017-07-27T00:51:08.295Z,94.41
2017-07-27T00:53:36.028Z,94.22
2017-07-27T00:56:03.949Z,94.17
2017-07-27T00:58:31.590Z,94.16
2017-07-27T01:00:59.188Z,94.04
2017-07-27T01:03:26.825Z,93.92
2017-07-27T01:05:54.638Z,93.91
2017-07-27T01:08:22.267Z,93.95
2017-07-27T01:10:49.889Z,93.90
2017-07-27T01:13:18.000Z,93.91
2017-07-27T01:15:45.629Z,93.92
2017-07-27T01:18:13.251Z,94.01
2017-07-27T01:20:40.921Z,93.96
2017-07-27T01:23:08.538Z,93.99
2017-07-27T01:25:36.457Z,93.82
2017-07-27T01:28:04.079Z,93.76
2017-07-27T01:30:31.711Z,93.77
2017-07-27T01:32:59.396Z,93.80
2017-07-27T01:35:27.039Z,93.73
2017-07-27T01:37:54.727Z,93.72
2017-07-27T01:40:22.368Z,93.73
2017-07-27T01:42:50.352Z,93.70
2017-07-27T01:45:17.965Z,93.69
2017-07-27T01:47:45.644Z,93.66
2017-07-27T01:50:13.306Z,93.74
2017-07-27T01:52:40.899Z,93.85
2017-07-27T01:55:08.554Z,93.87
2017-07-27T01:57:36.165Z,93.67
2017-07-27T02:00:04.058Z,93.81
2017-07-27T02:02:31.696Z,93.83
2017-07-27T02:04:59.316Z,93.74
2017-07-27T02:07:26.953Z,93.67
2017-07-27T02:09:54.558Z,93.61
2017-07-27T02:12:22.223Z,93.69
2017-07-27T02:14:49.864Z,93.66
2017-07-27T02:17:17.528Z,93.72
2017-07-27T02:19:45.153Z,93.78
2017-07-27T02:22:13.085Z,93.77
2017-07-27T02:24:40.742Z,93.71
2017-07-27T02:27:08.365Z,93.62
2017-07-27T02:29:36.036Z,93.60
2017-07-27T02:32:03.729Z,93.69
2017-07-27T02:34:31.387Z,93.57
2017-07-27T02:36:59.014Z,93.76
2017-07-27T02:39:26.675Z,93.72
2017-07-27T02:41:54.291Z,93.84
2017-07-27T02:44:22.290Z,93.65
2017-07-27T02:46:49.911Z,93.62
2017-07-27T02:49:17.560Z,93.65
2017-07-27T02:51:45.214Z,93.83
2017-07-27T02:54:12.865Z,93.70
2017-07-27T02:56:40.517Z,93.69
2017-07-27T02:59:08.232Z,93.80
2017-07-27T03:01:36.236Z,93.65
2017-07-27T03:04:03.868Z,93.65
2017-07-27T03:06:31.503Z,93.53
2017-07-27T03:08:59.182Z,93.52
2017-07-27T03:11:26.810Z,93.51
2017-07-27T03:13:54.818Z,93.37
2017-07-27T03:16:22.446Z,93.39
2017-07-27T03:18:50.210Z,93.42
2017-07-27T03:21:17.886Z,93.40
2017-07-27T03:23:45.578Z,93.47
2017-07-27T03:26:13.345Z,93.47
2017-07-27T03:28:41.035Z,93.39
2017-07-27T03:31:09.145Z,93.33
2017-07-27T03:33:36.927Z,93.30
2017-07-27T03:36:04.563Z,93.26
2017-07-27T03:38:32.235Z,93.31
2017-07-27T03:41:00.106Z,93.37
2017-07-27T03:43:28.021Z,93.42
2017-07-27T03:45:55.662Z,93.46
2017-07-27T03:48:23.496Z,93.34
2017-07-27T03:50:51.135Z,93.47
2017-07-27T03:53:18.779Z,93.57
2017-07-27T03:55:46.434Z,93.57
2017-07-27T03:58:14.179Z,93.53
2017-07-27T04:00:42.225Z,93.53
2017-07-27T04:03:09.872Z,93.54
2017-07-27T04:05:37.498Z,93.63
2017-07-27T04:08:05.278Z,93.61
2017-07-27T04:10:33.029Z,93.63
2017-07-27T04:13:00.691Z,93.70
2017-07-27T04:15:28.319Z,93.61
2017-07-27T04:17:56.497Z,93.71
2017-07-27T04:20:24.155Z,93.74
2017-07-27T04:22:51.755Z,93.69
2017-07-27T04:25:19.391Z,93.52
2017-07-27T04:27:47.028Z,93.52
2017-07-27T04:30:14.710Z,93.50
2017-07-27T04:32:42.336Z,93.59
2017-07-27T04:35:10.395Z,93.55
2017-07-27T04:37:38.042Z,93.51
2017-07-27T04:40:05.702Z,93.47
2017-07-27T04:42:33.360Z,93.43
2017-07-27T04:45:00.987Z,93.35
2017-07-27T04:47:28.641Z,93.36
2017-07-27T04:49:56.343Z,93.29
2017-07-27T04:52:24.161Z,93.28
2017-07-27T04:54:52.201Z,93.28
2017-07-27T04:57:40.508Z,93.26
2017-07-27T05:00:08.465Z,93.22
2017-07-27T05:02:36.110Z,93.24
2017-07-27T05:05:03.720Z,93.19
2017-07-27T05:07:31.376Z,93.20
2017-07-27T05:09:58.980Z,93.31
2017-07-27T05:12:27.112Z,93.35
2017-07-27T05:14:54.774Z,93.36
2017-07-27T05:17:22.434Z,93.41
2017-07-27T05:19:50.163Z,93.31
2017-07-27T05:22:18.095Z,93.06
2017-07-27T05:24:45.716Z,92.99
2017-07-27T05:27:13.352Z,93.11
2017-07-27T05:29:40.992Z,93.15
2017-07-27T05:32:08.744Z,93.07
2017-07-27T05:34:36.685Z,92.90
2017-07-27T05:37:04.300Z,92.65
2017-07-27T05:39:32.226Z,92.39
2017-07-27T05:41:59.834Z,92.25
2017-07-27T05:44:27.464Z,92.03
2017-07-27T05:46:55.105Z,91.95
2017-07-27T05:49:22.732Z,92.02
2017-07-27T05:51:50.414Z,91.76
2017-07-27T05:54:18.028Z,91.78
2017-07-27T05:56:45.969Z,91.62
2017-07-27T05:59:13.606Z,91.52
2017-07-27T06:01:41.236Z,91.47
2017-07-27T06:04:08.867Z,91.25
2017-07-27T06:06:36.494Z,91.36
2017-07-27T06:09:04.118Z,91.23
2017-07-27T06:11:31.853Z,91.00
2017-07-27T06:13:59.847Z,90.97
2017-07-27T06:16:27.468Z,90.74
2017-07-27T06:18:55.190Z,90.85
2017-07-27T06:21:22.952Z,90.40
2017-07-27T06:23:50.573Z,89.82
2017-07-27T06:26:18.222Z,90.34
2017-07-27T06:28:45.849Z,89.07
2017-07-27T06:31:13.907Z,88.96
2017-07-27T06:33:41.520Z,89.40
2017-07-27T06:36:09.146Z,88.98
2017-07-27T06:38:36.828Z,88.53
2017-07-27T06:41:04.461Z,88.71
2017-07-27T06:43:32.217Z,88.38
2017-07-27T06:46:00.287Z,88.01
2017-07-27T06:48:28.231Z,87.46
2017-07-27T06:50:55.880Z,85.91
2017-07-27T06:53:23.530Z,85.63
2017-07-27T06:55:51.378Z,84.86
2017-07-27T06:58:18.990Z,85.29
2017-07-27T07:00:46.639Z,83.93
2017-07-27T07:03:14.295Z,84.98
2017-07-27T07:05:42.277Z,84.88
2017-07-27T07:08:09.888Z,84.94
2017-07-27T07:10:37.515Z,84.59
2017-07-27T07:13:05.268Z,84.21
2017-07-27T07:15:32.880Z,85.16
2017-07-27T07:18:00.513Z,84.60
2017-07-27T07:20:28.147Z,85.36
2017-07-27T07:22:56.179Z,85.40
2017-07-27T07:25:23.811Z,85.11
2017-07-27T07:27:51.430Z,85.51
2017-07-27T07:30:19.080Z,85.57
2017-07-27T07:32:46.693Z,84.00
2017-07-27T07:35:14.747Z,83.66
2017-07-27T07:37:42.353Z,82.91
2017-07-27T07:40:09.989Z,83.90
2017-07-27T07:42:37.638Z,83.46
2017-07-27T07:45:05.270Z,83.43
2017-07-27T07:47:32.922Z,83.53
2017-07-27T07:50:00.565Z,83.90
2017-07-27T07:52:28.516Z,84.57
2017-07-27T07:54:56.256Z,84.42
2017-07-27T07:57:23.922Z,84.46
2017-07-27T07:59:51.555Z,84.94
2017-07-27T08:02:19.176Z,84.90
2017-07-27T08:04:46.841Z,84.21
2017-07-27T08:07:14.460Z,84.43
2017-07-27T08:09:54.457Z,84.66
2017-07-27T08:12:22.161Z,84.13
2017-07-27T08:14:49.779Z,84.30
2017-07-27T08:17:17.426Z,84.85
2017-07-27T08:19:45.186Z,85.11
2017-07-27T08:22:13.108Z,83.44
2017-07-27T08:24:40.731Z,84.22
2017-07-27T08:27:08.391Z,83.74
2017-07-27T08:29:36.038Z,84.16
2017-07-27T08:32:03.641Z,84.08
2017-07-27T08:34:31.308Z,84.27
2017-07-27T08:36:58.934Z,83.50
2017-07-27T08:39:27.172Z,84.22
2017-07-27T08:41:54.782Z,82.96
2017-07-27T08:44:22.413Z,83.16
2017-07-27T08:46:50.034Z,83.43
2017-07-27T08:49:17.678Z,83.46
2017-07-27T08:51:45.816Z,83.58
2017-07-27T08:54:13.439Z,82.76
2017-07-27T08:56:41.064Z,83.49
2017-07-27T08:59:08.833Z,82.88
2017-07-27T09:01:36.463Z,82.74
2017-07-27T09:04:04.097Z,80.98
2017-07-27T09:06:31.724Z,81.77
2017-07-27T09:08:59.735Z,80.70
2017-07-27T09:11:27.395Z,79.04
2017-07-27T09:13:55.058Z,78.27
2017-07-27T09:16:22.701Z,77.04
2017-07-27T09:18:50.440Z,78.56
2017-07-27T09:21:18.360Z,79.41
2017-07-27T09:23:46.254Z,79.18
2017-07-27T09:26:13.940Z,78.49
2017-07-27T09:28:41.606Z,76.13
2017-07-27T09:31:09.259Z,77.17
2017-07-27T09:33:37.292Z,77.86
2017-07-27T09:36:04.975Z,76.79
2017-07-27T09:38:33.609Z,74.65
2017-07-27T09:41:01.261Z,76.73
2017-07-27T09:43:29.250Z,75.98
2017-07-27T09:45:56.884Z,74.71
2017-07-27T09:48:24.534Z,76.15
2017-07-27T09:50:52.196Z,74.85
2017-07-27T09:53:19.845Z,74.66
2017-07-27T09:55:47.858Z,74.79
2017-07-27T09:58:15.491Z,75.32
2017-07-27T10:00:43.132Z,75.04
2017-07-27T10:03:10.884Z,74.95
2017-07-27T10:05:38.641Z,76.17
2017-07-27T10:08:06.509Z,73.62
2017-07-27T10:10:34.156Z,72.83
2017-07-27T10:13:02.081Z,72.67
2017-07-27T10:15:29.706Z,73.03
2017-07-27T10:17:57.339Z,73.79
2017-07-27T10:20:24.989Z,72.50
2017-07-27T10:22:52.650Z,72.34
2017-07-27T10:25:20.336Z,72.65
2017-07-27T10:27:47.977Z,71.96
2017-07-27T10:30:15.639Z,72.36
2017-07-27T10:32:43.245Z,72.06
2017-07-27T10:35:11.287Z,72.34
2017-07-27T10:37:38.908Z,72.35
2017-07-27T10:40:06.545Z,72.44
2017-07-27T10:42:34.206Z,73.34
2017-07-27T10:45:01.844Z,71.75
2017-07-27T10:47:29.943Z,72.91
2017-07-27T10:49:57.693Z,74.32
2017-07-27T10:52:25.339Z,75.72
2017-07-27T10:54:52.988Z,76.75
2017-07-27T10:57:20.605Z,77.65
2017-07-27T10:59:48.286Z,78.61
2017-07-27T11:02:15.923Z,79.17
2017-07-27T11:04:43.788Z,79.85
2017-07-27T11:07:11.403Z,79.95
2017-07-27T11:09:39.540Z,81.52
2017-07-27T11:12:07.168Z,82.07
2017-07-27T11:14:34.826Z,82.32
2017-07-27T11:17:02.591Z,82.90
2017-07-27T11:19:30.237Z,82.80
2017-07-27T11:21:58.200Z,84.11
2017-07-27T11:24:25.819Z,83.83
2017-07-27T11:26:53.459Z,84.08
2017-07-27T11:29:21.137Z,83.77
2017-07-27T11:31:48.788Z,84.08
2017-07-27T11:34:16.450Z,84.21
2017-07-27T11:36:44.168Z,85.00
2017-07-27T11:39:12.162Z,84.40
2017-07-27T11:41:39.801Z,84.75
2017-07-27T11:44:07.442Z,85.50
2017-07-27T11:46:35.091Z,86.21
2017-07-27T11:49:02.691Z,87.00
2017-07-27T11:51:30.629Z,87.18
2017-07-27T11:53:58.251Z,86.95
2017-07-27T11:56:25.890Z,87.43
2017-07-27T11:58:53.532Z,87.58
2017-07-27T12:01:21.160Z,87.83
2017-07-27T12:03:48.811Z,87.71
2017-07-27T12:06:16.414Z,88.19
2017-07-27T12:08:44.013Z,88.29
2017-07-27T12:11:11.922Z,88.86
2017-07-27T12:13:39.546Z,89.24
2017-07-27T12:16:07.206Z,89.47
2017-07-27T12:18:34.944Z,89.33
2017-07-27T12:21:02.566Z,89.41
2017-07-27T12:23:30.654Z,89.69
2017-07-27T12:25:58.284Z,89.96
2017-07-27T12:28:26.089Z,90.01
2017-07-27T12:30:53.733Z,90.27
2017-07-27T12:33:21.372Z,90.54
2017-07-27T12:35:49.040Z,90.94
2017-07-27T12:38:16.674Z,90.92
2017-07-27T12:40:44.317Z,91.50
2017-07-27T12:43:11.994Z,91.21
2017-07-27T12:45:39.948Z,91.12
2017-07-27T12:48:07.600Z,91.01
2017-07-27T12:50:35.224Z,91.04
2017-07-27T12:53:02.870Z,90.86
2017-07-27T12:55:30.491Z,91.06
2017-07-27T12:57:58.143Z,91.25
2017-07-27T13:00:25.752Z,90.70
2017-07-27T13:02:53.659Z,90.13
2017-07-27T13:05:21.283Z,90.04
2017-07-27T13:07:48.930Z,90.47
2017-07-27T13:10:16.601Z,90.38
2017-07-27T13:12:44.221Z,90.18
2017-07-27T13:15:12.194Z,90.21
2017-07-27T13:17:39.820Z,90.58
2017-07-27T13:20:07.452Z,90.82
2017-07-27T13:22:35.115Z,90.64
2017-07-27T13:25:02.742Z,91.10
2017-07-27T13:27:30.725Z,91.09
2017-07-27T13:29:58.373Z,91.00
2017-07-27T13:32:25.999Z,90.77
2017-07-27T13:34:53.636Z,90.84
2017-07-27T13:37:21.294Z,90.87
2017-07-27T13:39:48.948Z,90.86
2017-07-27T13:42:16.594Z,90.81
2017-07-27T13:44:44.542Z,90.46
2017-07-27T13:47:12.145Z,90.30
2017-07-27T13:49:39.751Z,90.26
2017-07-27T13:52:07.414Z,90.07
2017-07-27T13:54:35.040Z,90.06
2017-07-27T13:57:02.707Z,89.87
2017-07-27T13:59:30.391Z,89.56
2017-07-27T14:01:58.291Z,89.36
2017-07-27T14:04:25.922Z,89.27
2017-07-27T14:06:53.555Z,89.50
2017-07-27T14:09:21.215Z,89.11
2017-07-27T14:11:49.012Z,89.16
2017-07-27T14:14:16.653Z,88.46
2017-07-27T14:16:44.277Z,88.36
2017-07-27T14:19:12.199Z,88.08
2017-07-27T14:21:39.828Z,87.39
2017-07-27T14:24:07.459Z,88.14
2017-07-27T14:26:35.098Z,87.49
2017-07-27T14:29:02.817Z,87.12
2017-07-27T14:31:30.771Z,87.20
2017-07-27T14:33:58.453Z,86.77
2017-07-27T14:36:26.124Z,86.16
2017-07-27T14:38:53.778Z,86.34
2017-07-27T14:41:21.415Z,84.54
2017-07-27T14:43:49.064Z,84.63
2017-07-27T14:46:16.820Z,83.87
2017-07-27T14:48:44.830Z,83.17
2017-07-27T14:51:12.469Z,83.52
2017-07-27T14:53:40.104Z,84.06
2017-07-27T14:56:07.776Z,83.48
2017-07-27T14:58:35.395Z,82.15
2017-07-27T15:01:04.050Z,82.63
2017-07-27T15:03:31.713Z,81.59
2017-07-27T15:05:59.638Z,81.86
2017-07-27T15:08:27.247Z,81.65
2017-07-27T15:10:54.883Z,81.32
2017-07-27T15:13:22.575Z,81.28
2017-07-27T15:15:50.199Z,80.94
2017-07-27T15:18:17.852Z,81.16
2017-07-27T15:20:45.489Z,81.03
2017-07-27T15:23:13.144Z,81.12
2017-07-27T15:25:40.795Z,81.71
2017-07-27T15:28:08.740Z,82.04
2017-07-27T15:30:36.376Z,82.19
2017-07-27T15:33:03.997Z,81.84
2017-07-27T15:35:31.691Z,81.49
2017-07-27T15:37:59.309Z,81.49
2017-07-27T15:40:27.253Z,81.02
2017-07-27T15:42:55.074Z,81.45
2017-07-27T15:45:22.735Z,81.36
2017-07-27T15:47:50.479Z,81.28
2017-07-27T15:50:18.115Z,81.54
2017-07-27T15:52:47.020Z,81.05
2017-07-27T15:55:14.646Z,80.53
2017-07-27T15:57:42.340Z,77.42
2017-07-27T16:00:10.142Z,76.71
2017-07-27T16:02:37.789Z,76.73
2017-07-27T16:05:05.466Z,74.90
2017-07-27T16:07:33.120Z,72.98
2017-07-27T16:10:01.138Z,73.04
2017-07-27T16:12:28.774Z,72.30
2017-07-27T16:14:56.409Z,71.32
2017-07-27T16:17:24.059Z,71.95
2017-07-27T16:19:51.691Z,70.69
2017-07-27T16:22:19.358Z,69.83
2017-07-27T16:24:47.015Z,69.68
2017-07-27T16:27:15.407Z,71.62
2017-07-27T16:29:43.048Z,72.43
2017-07-27T16:32:10.812Z,72.08
2017-07-27T16:34:38.605Z,71.67
2017-07-27T16:37:06.251Z,72.23
2017-07-27T16:39:33.940Z,72.82
2017-07-27T16:42:01.584Z,73.33
2017-07-27T16:44:29.530Z,73.11
2017-07-27T16:46:57.232Z,73.49
2017-07-27T16:49:25.286Z,74.10
2017-07-27T16:51:53.009Z,74.18
2017-07-27T16:54:20.635Z,74.78
2017-07-27T16:56:48.305Z,75.58
2017-07-27T16:59:15.978Z,73.98
2017-07-27T17:01:44.022Z,76.14
2017-07-27T17:04:11.665Z,76.01
2017-07-27T17:06:39.379Z,76.64
2017-07-27T17:09:07.048Z,75.76
2017-07-27T17:11:34.805Z,76.05
2017-07-27T17:14:02.464Z,76.53
2017-07-27T17:16:30.155Z,77.27
2017-07-27T17:18:58.105Z,77.19
2017-07-27T17:21:25.751Z,77.42
2017-07-27T17:23:53.404Z,77.49
2017-07-27T17:26:21.089Z,77.50
2017-07-27T17:28:48.691Z,77.40
2017-07-27T17:31:16.346Z,77.67
2017-07-27T17:33:44.003Z,77.58
2017-07-27T17:36:11.938Z,77.54
2017-07-27T17:38:39.676Z,78.01
2017-07-27T17:41:07.428Z,78.40
2017-07-27T17:43:35.233Z,78.37
2017-07-27T17:46:02.869Z,78.12
2017-07-27T17:48:30.529Z,78.20
2017-07-27T17:50:58.168Z,78.79
2017-07-27T17:53:26.094Z,78.83
2017-07-27T17:55:53.741Z,79.11
2017-07-27T17:58:21.486Z,79.24
2017-07-27T18:00:49.149Z,79.25
2017-07-27T18:03:18.238Z,79.22
2017-07-27T18:05:45.969Z,79.48
2017-07-27T18:08:13.651Z,79.75
2017-07-27T18:10:41.336Z,79.88
2017-07-27T18:13:09.465Z,80.27
2017-07-27T18:15:37.155Z,80.61
2017-07-27T18:18:04.803Z,80.89
2017-07-27T18:20:32.477Z,80.95
2017-07-27T18:23:00.138Z,81.14
2017-07-27T18:25:27.823Z,81.09
2017-07-27T18:27:55.445Z,81.24
2017-07-27T18:30:23.987Z,81.44
2017-07-27T18:32:51.731Z,81.66
2017-07-27T18:35:19.415Z,81.88
2017-07-27T18:37:47.042Z,81.92
2017-07-27T18:40:14.680Z,81.90
2017-07-27T18:42:42.481Z,82.16
2017-07-27T18:45:10.101Z,82.41
2017-07-27T18:47:37.790Z,82.59
2017-07-27T18:50:05.419Z,82.84
2017-07-27T18:52:33.084Z,82.90
2017-07-27T18:55:00.714Z,82.98
2017-07-27T18:57:28.379Z,83.07
2017-07-27T18:59:56.109Z,83.24
2017-07-27T19:02:23.772Z,83.41
2017-07-27T19:04:52.562Z,83.50
2017-07-27T19:07:20.572Z,83.88
2017-07-27T19:09:48.201Z,83.92
2017-07-27T19:12:15.859Z,84.17
2017-07-27T19:14:43.483Z,84.24
2017-07-27T19:17:11.151Z,84.56
2017-07-27T19:19:39.109Z,84.47
2017-07-27T19:22:06.836Z,84.87
2017-07-27T19:24:34.496Z,85.17
2017-07-27T19:27:02.813Z,85.33
2017-07-27T19:29:30.507Z,85.33
2017-07-27T19:31:58.185Z,85.66
2017-07-27T19:34:25.799Z,85.91
2017-07-27T19:36:53.802Z,86.02
2017-07-27T19:39:22.417Z,86.35
2017-07-27T19:41:50.210Z,86.63
2017-07-27T19:44:19.292Z,86.66
2017-07-27T19:46:46.947Z,86.81
2017-07-27T19:49:14.715Z,86.99
2017-07-27T19:51:42.863Z,87.06
2017-07-27T19:54:10.975Z,87.13
2017-07-27T19:56:38.696Z,87.32
2017-07-27T19:59:06.332Z,87.39
2017-07-27T20:01:33.986Z,87.56
2017-07-27T20:04:01.639Z,87.79
2017-07-27T20:06:30.434Z,87.77
